Flight Track Log - Related Links

Times and Time Zones

All times are in EDT time to prevent confusion due to time zone crossing. See the N600TR flight status page for this flight to view local times or setup timezone preferences in your user account.

Time Position Orientation Groundspeed Altitude Reporting Facility
EDT Latitude Longitude Course Direction KTS MPH feet Rate Location/Type
Wed 04:24:37 PM 33.6500 -84.4500 348° North 152 175 2,100  Level Atlanta TRACON
Wed 04:25:37 PM 33.6667 -84.5167 287° West 258 297 3,200 2,000 Climbing Atlanta TRACON
Wed 04:26:37 PM 33.7000 -84.6000 296° West 284 327 6,100 2,600 Climbing Atlanta TRACON
Wed 04:27:00 PM 34.0549 -84.5266 349° North  Level FlightAware Approximate
Wed 04:27:37 PM 33.7833 -84.6000 360° North 288 331 8,400  Level Atlanta TRACON
Wed 04:28:00 PM 34.1538 -84.5535 347° North  Level FlightAware Approximate
Wed 04:28:37 PM 33.8667 -84.6167 351° North 299 344 10,100  Level Atlanta TRACON
Wed 04:29:00 PM 34.2578 -84.5816 348° North  Level FlightAware Approximate
Wed 04:29:52 PM 33.9850 -84.6275 356° North 336 387 12,100  Level Atlanta Center
Wed 04:30:00 PM 34.3620 -84.6085 348° North  Level FlightAware Approximate
Wed 04:30:52 PM 34.0831 -84.6333 357° North 353 406 13,700  Level Atlanta Center
Wed 04:31:52 PM 34.1853 -84.6439 355° North 358 412 16,100 1,950 Climbing Atlanta Center
Wed 04:32:52 PM 34.2728 -84.6497 357° North 358 412 17,600 1,600 Climbing Atlanta Center
Wed 04:33:52 PM 34.3750 -84.6553 357° North 358 412 19,300 1,600 Climbing Atlanta Center
Wed 04:34:52 PM 34.4814 -84.6739 352° North 373 429 20,800 1,400 Climbing Atlanta Center
Wed 04:35:52 PM 34.5856 -84.7075 345° North 373 429 22,100 1,300 Climbing Atlanta Center
Wed 04:36:52 PM 34.6897 -84.7436 344° North 379 436 23,400 1,250 Climbing Atlanta Center
Wed 04:37:52 PM 34.8106 -84.7700 350° North 385 443 24,600 900 Climbing Atlanta Center
Wed 04:38:52 PM 34.9253 -84.7911 351° North 396 456 25,200 800 Climbing Atlanta Center
Wed 04:39:52 PM 35.0419 -84.8100 352° North 410 472 26,200 850 Climbing Atlanta Center
Wed 04:40:52 PM 35.1564 -84.8414 347° North 415 478 26,900 800 Climbing Atlanta Center
Wed 04:41:52 PM 35.2689 -84.8808 344° North 415 478 27,800 550 Climbing Atlanta Center
Wed 04:42:52 PM 35.3833 -84.9150 346° North 415 478 28,000 100 Climbing Atlanta Center
Wed 04:43:52 PM 35.5086 -84.9292 355° North 425 489 28,000  Level Atlanta Center
Wed 04:44:52 PM 35.6336 -84.9408 356° North 440 506 28,000  Level Atlanta Center
Wed 04:45:52 PM 35.7608 -84.9625 352° North 450 518 28,000  Level Atlanta Center
Wed 04:46:55 PM 35.8836 -84.9844 352° North 467 537 28,000  Level Indianapolis Center
Wed 04:47:57 PM 36.0178 -85.0319 344° North 457 526 28,000  Level Indianapolis Center
Wed 04:48:59 PM 36.1403 -85.0697 346° North 454 522 28,000  Level Indianapolis Center
Wed 04:50:01 PM 36.2642 -85.0883 353° North 449 517 28,000 -194 Level Indianapolis Center
Wed 04:51:03 PM 36.3886 -85.0989 356° North 447 514 27,600 -1,306 Descending Indianapolis Center
Wed 04:52:05 PM 36.5122 -85.1328 348° North 453 521 25,300 -1,984 Descending Indianapolis Center
Wed 04:53:07 PM 36.6519 -85.1878 342° North 442 509 23,500 -2,226 Descending Indianapolis Center
Wed 04:54:09 PM 36.7683 -85.2147 349° North 433 498 20,700 -1,680 Descending Indianapolis Center
Wed 04:55:12 PM 36.8839 -85.1525 23° Northeast 447 514 20,000 -336 Descending Indianapolis Center
Wed 04:56:14 PM 36.9950 -85.0853 26° Northeast 444 511 20,000 -629 Level Indianapolis Center
Wed 04:57:16 PM 37.1167 -85.0275 21° North 435 501 18,700 -1,935 Descending Indianapolis Center
Wed 04:58:18 PM 37.2300 -84.9928 14° North 418 481 16,000 -2,516 Descending Indianapolis Center
Wed 04:59:20 PM 37.3378 -84.9622 13° North 397 457 13,500 -1,839 Descending Indianapolis Center
Wed 05:00:22 PM 37.4431 -84.9392 10° North 384 442 12,200 -1,161 Descending Indianapolis Center
Wed 05:01:24 PM 37.5628 -84.9258 North 367 422 11,100 -774 Descending Indianapolis Center
Wed 05:02:26 PM 37.6517 -84.9811 334° Northwest 365 420 10,600 -532 Descending Indianapolis Center
Wed 05:03:28 PM 37.7242 -85.0678 317° Northwest 359 413 10,000 -290 Descending Indianapolis Center
Wed 05:04:30 PM 37.7822 -85.1431 314° West 298 343 10,000 -1,016 Level Indianapolis Center
Wed 05:05:32 PM 37.8167 -85.2306 297° West 286 329 7,900 -1,935 Descending Indianapolis Center
Wed 05:06:34 PM 37.8503 -85.3278 294° West 282 325 6,000 -1,597 Descending Indianapolis Center
Wed 05:07:36 PM 37.8836 -85.4144 296° West 276 318 4,600 -919 Descending Indianapolis Center
Wed 05:08:38 PM 37.9161 -85.5014 295° West 273 314 4,100 -427 Descending Indianapolis Center
Wed 05:11:07 PM 38.0139 -85.6639 307° West 563 648 3,100 -284 Descending Indianapolis Center
Wed 05:12:09 PM 38.0594 -85.6878 338° Northwest 237 273 3,100  Level Indianapolis Center

Login

Don't have an account? Register now (free) for customized features, flight alerts, and more!